This is the latest recevied weather packets stored in our database for station/object KE4LOJ. If no packets are shown the sender has not sent any weather packets the latest 10 day(s).
| Time | Temp. | Humidity | Pressure | Rain* | Wind** | Luminosity | Snow |
|---|---|---|---|---|---|---|---|
| 1777415829 | 26.11° C | 68% | 1018.9 hPa | 0 mm | - | 51 W/m² | - |
| 1777415524 | 26.11° C | 68% | 1018.8 hPa | 0 mm | - | 62 W/m² | - |
| 1777415220 | 26.11° C | 66% | 1018.9 hPa | 0 mm | - | 162 W/m² | - |
| 1777414915 | 26.67° C | 67% | 1018.6 hPa | 0 mm | - | 206 W/m² | - |
| 1777414615 | 26.67° C | 66% | 1018.8 hPa | 0 mm | - | 226 W/m² | - |
| 1777414310 | 26.67° C | 67% | 1018.7 hPa | 0 mm | - | 250 W/m² | - |
| 1777414005 | 26.67° C | 67% | 1018.7 hPa | 0 mm | - | 259 W/m² | - |
| 1777413700 | 26.67° C | 66% | 1018.7 hPa | 0 mm | - | 290 W/m² | - |
| 1777413396 | 26.67° C | 66% | 1018.8 hPa | 0 mm | - | 331 W/m² | - |
| 1777413093 | 27.22° C | 64% | 1018.8 hPa | 0 mm | - | 312 W/m² | - |
| 1777412793 | 27.22° C | 65% | 1018.9 hPa | 0 mm | - | 331 W/m² | - |
| 1777412493 | 27.22° C | 64% | 1018.8 hPa | 0 mm | - | 358 W/m² | - |
| 1777412190 | 27.22° C | 66% | 1018.7 hPa | 0 mm | - | 368 W/m² | - |
| 1777411887 | 26.67° C | 65% | 1018.7 hPa | 0 mm | - | 383 W/m² | - |
| 1777411585 | 26.67° C | 65% | 1018.7 hPa | 0 mm | - | 408 W/m² | - |
| 1777411281 | 27.22° C | 65% | 1019 hPa | 0 mm | - | 153 W/m² | - |
| 1777410980 | 27.22° C | 65% | 1019 hPa | 0 mm | - | 166 W/m² | - |
| 1777410680 | 27.22° C | 65% | 1018.9 hPa | 0 mm | - | 506 W/m² | - |
| 1777410375 | 27.78° C | 63% | 1019.1 hPa | 0 mm | - | 223 W/m² | - |
| 1777410074 | 27.78° C | 64% | 1018.9 hPa | 0 mm | - | 569 W/m² | - |
| 1777409769 | 26.67° C | 66% | 1019 hPa | 0 mm | - | 567 W/m² | - |
| 1777409465 | 27.22° C | 64% | 1019.1 hPa | 0 mm | - | 134 W/m² | - |
| 1777409161 | 27.22° C | 63% | 1019.1 hPa | 0 mm | - | 244 W/m² | - |
| 1777408857 | 27.78° C | 64% | 1019.2 hPa | 0 mm | - | 146 W/m² | - |
| 1777408553 | 27.78° C | 62% | 1019.1 hPa | 0 mm | - | 417 W/m² | - |
* Rain latest hour (hover to see other rain measurements)
** Current wind speed in m/s (hover to see current wind gust speed)